Time;durP1;ratioP1;P1;durP2;ratioP2;P2;SDS_P1;SDS_P2;PMS_P1;PMS_P2;Temp;Humidity;BMP_temperature;BMP_pressure;BME280_temperature;BME280_humidity;BME280_pressure;Samples;Min_cycle;Max_cycle;Signal;HPM_P1;HPM_P2
2022/08/26 00:01:10;;;;;;;4.55;4.20;;;;;;;19.36;93.59;96330.84;5046713;28;20216;-60
2022/08/26 00:03:37;;;;;;;5.57;4.40;;;;;;;19.40;93.74;96329.38;5046985;28;20196;-58
2022/08/26 00:06:04;;;;;;;5.25;4.47;;;;;;;19.42;94.98;96329.19;5046416;28;20286;-58
2022/08/26 00:08:32;;;;;;;4.70;4.00;;;;;;;19.45;95.16;96324.25;5044923;28;20581;-57
2022/08/26 00:10:59;;;;;;;4.95;4.57;;;;;;;19.49;94.56;96322.81;5045643;28;20283;-57
2022/08/26 00:13:26;;;;;;;4.45;4.13;;;;;;;19.52;94.79;96322.41;5045689;28;20212;-60
2022/08/26 00:15:52;;;;;;;5.32;4.63;;;;;;;19.54;94.71;96317.66;5044788;28;20249;-58
2022/08/26 00:18:20;;;;;;;4.45;4.15;;;;;;;19.57;94.93;96317.25;5044508;28;20594;-60
2022/08/26 00:20:46;;;;;;;5.53;4.63;;;;;;;19.59;95.32;96317.84;5045287;28;20322;-53
2022/08/26 00:23:13;;;;;;;4.60;4.20;;;;;;;19.65;94.79;96318.91;5044928;28;20286;-54
2022/08/26 00:25:41;;;;;;;5.13;4.20;;;;;;;19.66;95.03;96325.94;5044356;28;20282;-53
2022/08/26 00:28:08;;;;;;;4.93;4.53;;;;;;;19.69;93.66;96320.13;5045021;28;20242;-54
2022/08/26 00:30:34;;;;;;;4.90;4.40;;;;;;;19.70;94.60;96319.09;5044311;28;20616;-55
2022/08/26 00:33:02;;;;;;;4.60;4.30;;;;;;;19.69;94.54;96323.66;5044814;28;20242;-57
2022/08/26 00:35:30;;;;;;;4.93;4.53;;;;;;;19.72;94.59;96320.56;5046299;28;20298;-58
2022/08/26 00:37:57;;;;;;;4.90;4.50;;;;;;;19.73;93.84;96321.38;5044699;28;20232;-55
2022/08/26 00:40:27;;;;;;;5.15;4.40;;;;;;;19.70;94.81;96322.59;5044398;28;20344;-58
2022/08/26 00:42:55;;;;;;;4.90;4.32;;;;;;;19.69;94.86;96326.34;5044433;28;20651;-57
2022/08/26 00:45:22;;;;;;;4.40;4.10;;;;;;;19.59;96.03;96322.41;5044525;28;20689;-57
2022/08/26 00:47:52;;;;;;;4.93;4.50;;;;;;;19.56;96.51;96322.81;5043502;28;20223;-57
2022/08/26 00:50:22;;;;;;;4.80;4.40;;;;;;;19.53;96.30;96324.06;5043672;28;20227;-58
2022/08/26 00:52:50;;;;;;;4.75;4.35;;;;;;;19.53;96.94;96321.38;5043444;28;20257;-57
2022/08/26 00:55:20;;;;;;;5.00;4.70;;;;;;;19.46;97.10;96320.53;5044405;28;20257;-59
2022/08/26 00:57:48;;;;;;;5.75;4.72;;;;;;;19.42;97.54;96321.97;5043635;28;20292;-59
2022/08/26 01:00:19;;;;;;;4.90;4.50;;;;;;;19.38;97.49;96328.75;5044129;28;20310;-60
2022/08/26 01:02:46;;;;;;;5.13;4.72;;;;;;;19.37;97.34;96330.63;5043411;28;20228;-62
2022/08/26 01:05:13;;;;;;;4.55;4.20;;;;;;;19.30;97.86;96326.28;5043236;28;20711;-61
2022/08/26 01:07:40;;;;;;;4.90;4.60;;;;;;;19.27;98.51;96332.88;5043560;28;20223;-60
2022/08/26 01:10:09;;;;;;;4.97;4.38;;;;;;;19.29;98.80;96328.16;5043335;28;20623;-59
2022/08/26 01:12:41;;;;;;;4.75;4.45;;;;;;;19.29;98.04;96327.31;5044360;28;20199;-58
2022/08/26 01:15:10;;;;;;;6.32;4.80;;;;;;;19.22;98.99;96335.34;5044293;28;20239;-59
2022/08/26 01:17:40;;;;;;;5.10;4.70;;;;;;;19.18;98.81;96333.28;5043968;28;20274;-58
2022/08/26 01:20:10;;;;;;;5.20;4.53;;;;;;;19.17;99.68;96331.63;5045031;28;20259;-59
2022/08/26 01:22:46;;;;;;;4.43;4.18;;;;;;;19.16;99.47;96330.81;5043633;28;20289;-58
2022/08/26 01:25:14;;;;;;;5.25;4.85;;;;;;;19.21;98.80;96327.50;5043751;28;20637;-60
2022/08/26 01:27:41;;;;;;;5.03;4.63;;;;;;;19.21;98.71;96332.88;5043562;28;20203;-58
2022/08/26 01:30:10;;;;;;;4.47;4.13;;;;;;;19.21;98.78;96330.19;5043277;28;20939;-59
2022/08/26 01:32:37;;;;;;;4.78;4.38;;;;;;;19.29;97.80;96327.31;5043268;28;20675;-60
2022/08/26 01:35:05;;;;;;;4.70;4.20;;;;;;;19.27;97.24;96326.72;5043780;28;20356;-61
2022/08/26 01:37:35;;;;;;;4.68;4.38;;;;;;;19.21;98.27;96333.69;5044329;28;20285;-62
2022/08/26 01:40:05;;;;;;;4.75;4.45;;;;;;;19.21;97.54;96328.34;5042966;28;20238;-60
2022/08/26 01:42:32;;;;;;;4.72;4.32;;;;;;;19.23;96.86;96330.81;5043283;28;20200;-62
2022/08/26 01:45:02;;;;;;;4.90;4.50;;;;;;;19.21;97.27;96328.34;5043398;28;20199;-60
2022/08/26 01:47:30;;;;;;;4.88;4.47;;;;;;;19.18;98.85;96341.31;5043140;28;20231;-59
2022/08/26 01:49:59;;;;;;;5.07;4.65;;;;;;;19.12;99.96;96344.81;5043422;28;20309;-60
2022/08/26 01:52:28;;;;;;;6.03;4.75;;;;;;;19.08;100.00;96338.22;5043642;28;20265;-60
2022/08/26 01:54:56;;;;;;;5.00;4.60;;;;;;;19.06;100.00;96334.91;5043786;28;20239;-58
2022/08/26 01:57:25;;;;;;;5.88;5.00;;;;;;;19.03;100.00;96346.84;5043363;28;20239;-59
2022/08/26 01:59:53;;;;;;;4.60;4.20;;;;;;;19.01;100.00;96334.69;5044023;28;20231;-63
2022/08/26 02:02:20;;;;;;;5.35;4.85;;;;;;;18.95;100.00;96340.88;5043673;28;20307;-61
2022/08/26 02:04:50;;;;;;;5.25;4.65;;;;;;;18.86;100.00;96341.03;5042675;28;20237;-59
2022/08/26 02:07:19;;;;;;;6.20;5.68;;;;;;;18.83;100.00;96338.78;5042763;28;20215;-59
2022/08/26 02:09:46;;;;;;;5.13;4.70;;;;;;;18.80;100.00;96341.03;5042243;28;20294;-59
2022/08/26 02:12:15;;;;;;;5.32;4.82;;;;;;;18.78;100.00;96341.22;5042914;28;20261;-58
2022/08/26 02:14:48;;;;;;;4.93;4.63;;;;;;;18.76;100.00;96348.66;5043585;28;20294;-59
2022/08/26 02:17:17;;;;;;;5.18;4.65;;;;;;;18.74;100.00;96341.84;5042903;28;20195;-60
2022/08/26 02:19:47;;;;;;;5.07;4.68;;;;;;;18.69;100.00;96336.25;5042331;28;20655;-57
2022/08/26 02:22:18;;;;;;;5.32;4.93;;;;;;;18.70;100.00;96341.41;5042751;28;20227;-58
2022/08/26 02:24:48;;;;;;;5.20;4.80;;;;;;;18.62;100.00;96341.59;5042981;28;20203;-59
2022/08/26 02:27:16;;;;;;;5.57;5.10;;;;;;;18.61;100.00;96347.97;5042362;28;20196;-61
2022/08/26 02:29:46;;;;;;;5.13;4.72;;;;;;;18.53;100.00;96348.13;5042216;28;20683;-59
2022/08/26 02:32:13;;;;;;;5.40;5.00;;;;;;;18.48;100.00;96347.06;5042368;28;20316;-60
2022/08/26 02:34:40;;;;;;;5.80;5.30;;;;;;;18.51;100.00;96347.50;5042822;28;20211;-60
2022/08/26 02:37:09;;;;;;;5.07;4.63;;;;;;;18.43;100.00;96339.59;5043072;28;20575;-60
2022/08/26 02:39:37;;;;;;;5.63;5.15;;;;;;;18.39;100.00;96341.03;5043780;28;20321;-60
2022/08/26 02:42:04;;;;;;;7.47;5.22;;;;;;;18.33;100.00;96339.97;5041669;28;20200;-61
2022/08/26 02:44:31;;;;;;;5.28;4.80;;;;;;;18.38;100.00;96342.06;5043185;28;20207;-60
2022/08/26 02:47:00;;;;;;;5.50;5.05;;;;;;;18.37;100.00;96340.41;5042059;28;20230;-60
2022/08/26 02:49:29;;;;;;;5.50;5.00;;;;;;;18.30;100.00;96345.72;5041853;28;20327;-58
2022/08/26 02:51:56;;;;;;;5.60;5.18;;;;;;;18.29;100.00;96349.44;5041830;28;20695;-59
2022/08/26 02:54:23;;;;;;;5.53;5.13;;;;;;;18.23;100.00;96344.88;5041663;28;20283;-60
2022/08/26 02:56:50;;;;;;;5.32;4.82;;;;;;;18.23;100.00;96349.41;5042813;28;20239;-60
2022/08/26 02:59:17;;;;;;;6.35;5.03;;;;;;;18.24;100.00;96346.53;5042136;28;20572;-58
2022/08/26 03:01:46;;;;;;;5.10;4.72;;;;;;;18.27;100.00;96351.50;5042887;28;20246;-59
2022/08/26 03:04:14;;;;;;;5.00;4.55;;;;;;;18.22;100.00;96351.25;5042922;28;20628;-59
2022/08/26 03:06:41;;;;;;;5.60;5.25;;;;;;;18.21;100.00;96346.09;5042958;28;20258;-59
2022/08/26 03:09:08;;;;;;;6.15;5.07;;;;;;;18.15;100.00;96336.16;5043547;28;20265;-59
2022/08/26 03:11:35;;;;;;;5.00;4.57;;;;;;;18.19;100.00;96348.13;5042529;28;20914;-60
2022/08/26 03:14:04;;;;;;;5.65;5.15;;;;;;;18.14;100.00;96346.03;5042491;28;20348;-58
2022/08/26 03:16:32;;;;;;;5.07;4.60;;;;;;;18.12;100.00;96336.56;5042755;28;20592;-58
2022/08/26 03:19:01;;;;;;;5.65;5.15;;;;;;;18.09;100.00;96336.97;5041688;28;20563;-62
2022/08/26 03:21:29;;;;;;;5.40;5.00;;;;;;;18.05;100.00;96330.34;5041771;28;20238;-59
2022/08/26 03:23:56;;;;;;;5.85;5.45;;;;;;;18.05;100.00;96335.69;5042753;28;20227;-60
2022/08/26 03:26:23;;;;;;;5.43;4.97;;;;;;;18.02;100.00;96330.75;5042329;28;20577;-60
2022/08/26 03:31:34;;;;;;;5.95;5.32;;;;;;;17.97;100.00;96325.16;5041915;28;20210;-60
2022/08/26 03:34:02;;;;;;;5.97;5.38;;;;;;;17.92;100.00;96319.56;5044132;28;20281;-60
2022/08/26 03:36:30;;;;;;;6.07;5.43;;;;;;;17.94;100.00;96325.53;5045984;28;20241;-60
2022/08/26 03:38:57;;;;;;;5.95;5.45;;;;;;;17.92;100.00;96331.09;5045715;28;20293;-59
2022/08/26 03:41:24;;;;;;;5.93;5.53;;;;;;;17.94;100.00;96325.53;5046465;28;20301;-60
2022/08/26 03:43:50;;;;;;;5.70;5.30;;;;;;;17.89;100.00;96332.31;5046674;28;20292;-60
2022/08/26 03:46:19;;;;;;;6.15;5.55;;;;;;;17.88;100.00;96330.66;5046363;28;20235;-57
2022/08/26 03:48:46;;;;;;;6.10;5.60;;;;;;;17.85;100.00;96336.38;5045726;28;20559;-60
2022/08/26 03:51:14;;;;;;;6.05;5.65;;;;;;;17.85;100.00;96333.72;5046231;28;20268;-61
2022/08/26 03:53:42;;;;;;;6.55;5.82;;;;;;;17.85;100.00;96331.03;5046684;28;20199;-63
2022/08/26 03:56:09;;;;;;;6.07;5.63;;;;;;;17.83;100.00;96343.78;5047696;28;20605;-63
2022/08/26 03:58:37;;;;;;;5.93;5.53;;;;;;;17.83;100.00;96338.44;5046280;28;20206;-63
2022/08/26 04:01:04;;;;;;;7.32;5.65;;;;;;;17.77;100.00;96333.88;5045383;28;20266;-59
2022/08/26 04:06:15;;;;;;;7.15;6.45;;;;;;;17.84;100.00;96326.72;5046755;28;20198;-61
2022/08/26 04:08:43;;;;;;;6.18;5.65;;;;;;;17.82;100.00;96331.44;5045275;28;20649;-62
2022/08/26 04:11:17;;;;;;;6.80;6.20;;;;;;;17.76;100.00;96329.53;5044811;28;20272;-62
2022/08/26 04:13:44;;;;;;;6.18;5.63;;;;;;;17.73;100.00;96334.47;5045542;28;20199;-63
2022/08/26 04:16:10;;;;;;;6.60;6.07;;;;;;;17.69;100.00;96338.53;5045482;28;20297;-62
2022/08/26 04:18:37;;;;;;;5.80;5.40;;;;;;;17.66;100.00;96337.09;5045050;28;20211;-64
2022/08/26 04:21:04;;;;;;;7.07;6.25;;;;;;;17.70;100.00;96338.34;5044660;28;20567;-63
2022/08/26 04:23:31;;;;;;;6.38;5.88;;;;;;;17.67;100.00;96345.94;5044848;28;20199;-63
2022/08/26 04:26:00;;;;;;;7.00;6.40;;;;;;;17.63;100.00;96347.34;5046033;28;20202;-62
2022/08/26 04:28:26;;;;;;;6.63;6.18;;;;;;;17.61;100.00;96350.19;5044619;28;20199;-63
2022/08/26 04:30:53;;;;;;;6.28;5.88;;;;;;;17.63;100.00;96345.50;5044970;28;20223;-63
2022/08/26 04:33:20;;;;;;;7.43;6.10;;;;;;;17.58;100.00;96345.25;5044982;28;20249;-63
2022/08/26 04:35:48;;;;;;;7.70;5.97;;;;;;;17.57;100.00;96340.91;5047027;28;20261;-62
2022/08/26 04:38:18;;;;;;;7.18;6.63;;;;;;;17.58;100.00;96344.41;5044632;28;20648;-52
2022/08/26 04:40:48;;;;;;;6.65;6.05;;;;;;;17.60;100.00;96337.88;5045722;28;20289;-54
2022/08/26 04:43:16;;;;;;;7.85;6.30;;;;;;;17.56;100.00;96336.59;5044262;28;20671;-52
2022/08/26 04:45:43;;;;;;;7.47;6.88;;;;;;;17.58;100.00;96339.91;5044933;28;20233;-54
2022/08/26 04:48:10;;;;;;;7.15;6.65;;;;;;;17.58;100.00;96345.25;5044575;28;20575;-53
2022/08/26 04:50:36;;;;;;;7.03;6.50;;;;;;;17.57;100.00;96346.25;5046952;28;20202;-53
2022/08/26 04:53:04;;;;;;;6.75;6.15;;;;;;;17.63;100.00;96342.84;5045208;28;20232;-54
2022/08/26 04:55:30;;;;;;;6.55;6.03;;;;;;;17.59;100.00;96341.56;5047217;28;20200;-55
2022/08/26 04:57:57;;;;;;;7.05;6.38;;;;;;;17.59;100.00;96340.72;5047009;28;20210;-53
2022/08/26 05:00:25;;;;;;;6.55;6.15;;;;;;;17.62;100.00;96343.84;5055624;28;20234;-53
2022/08/26 05:02:52;;;;;;;7.15;6.63;;;;;;;17.65;100.00;96350.63;5067479;28;20195;-52
2022/08/26 05:05:19;;;;;;;7.13;6.55;;;;;;;17.66;100.00;96347.78;5067868;28;20192;-52
2022/08/26 05:07:46;;;;;;;6.88;6.38;;;;;;;17.66;100.00;96347.78;5068246;28;20183;-55
2022/08/26 05:10:13;;;;;;;8.32;6.57;;;;;;;17.75;100.00;96351.97;5074008;28;20179;-54
2022/08/26 05:12:40;;;;;;;6.88;6.38;;;;;;;17.88;100.00;96353.91;5066898;28;20244;-53
2022/08/26 05:15:09;;;;;;;9.23;6.45;;;;;;;17.88;100.00;96356.59;5069047;28;20180;-52
2022/08/26 05:17:37;;;;;;;7.35;6.65;;;;;;;17.89;100.00;96351.03;5066509;28;20175;-52
2022/08/26 05:20:05;;;;;;;7.43;6.72;;;;;;;17.89;100.00;96356.38;5066699;28;20187;-53
2022/08/26 05:22:32;;;;;;;7.72;7.05;;;;;;;17.92;100.00;96358.66;5062266;28;20222;-55
2022/08/26 05:24:58;;;;;;;7.28;6.78;;;;;;;17.99;100.00;96352.53;5043991;28;20223;-56
2022/08/26 05:27:25;;;;;;;7.30;6.80;;;;;;;18.04;100.00;96356.28;5042872;28;20673;-53
2022/08/26 05:29:56;;;;;;;8.45;7.70;;;;;;;18.11;100.00;96356.31;5043284;28;20258;-54
2022/08/26 05:32:23;;;;;;;8.63;7.75;;;;;;;18.21;100.00;96362.16;5043336;28;20408;-54
2022/08/26 05:34:54;;;;;;;7.88;7.25;;;;;;;18.27;100.00;96356.84;5042916;28;20619;-54
2022/08/26 05:37:21;;;;;;;7.93;7.32;;;;;;;18.32;100.00;96365.09;5043020;28;20247;-55
2022/08/26 05:39:50;;;;;;;9.32;8.43;;;;;;;18.36;100.00;96363.69;5043411;28;20218;-53
2022/08/26 05:42:18;;;;;;;8.50;7.70;;;;;;;18.50;100.00;96364.56;5042948;28;20768;-54
2022/08/26 05:44:45;;;;;;;8.20;7.47;;;;;;;18.67;100.00;96365.91;5043416;28;20239;-55
2022/08/26 05:47:12;;;;;;;8.75;7.65;;;;;;;18.81;100.00;96370.28;5042466;28;20214;-54
2022/08/26 05:49:38;;;;;;;8.18;7.47;;;;;;;19.02;100.00;96360.47;5042279;28;20292;-55
2022/08/26 05:52:07;;;;;;;8.65;7.97;;;;;;;19.38;100.00;96367.13;5043042;28;20506;-54
2022/08/26 05:54:33;;;;;;;9.43;7.30;;;;;;;20.09;100.00;96366.53;5043021;28;20285;-54
2022/08/26 05:57:00;;;;;;;9.85;7.43;;;;;;;20.80;95.09;96364.69;5043201;28;20239;-54
2022/08/26 05:59:26;;;;;;;7.60;7.00;;;;;;;21.28;90.35;96367.81;5042235;28;20722;-55
2022/08/26 06:01:54;;;;;;;9.88;7.18;;;;;;;21.84;86.54;96367.81;5043066;28;20254;-54
2022/08/26 06:04:21;;;;;;;7.45;6.30;;;;;;;22.29;82.07;96371.13;5042074;28;20196;-55
2022/08/26 06:06:48;;;;;;;7.47;6.78;;;;;;;22.77;80.09;96382.06;5042862;28;20223;-55
2022/08/26 06:09:16;;;;;;;8.25;6.60;;;;;;;23.15;77.45;96381.78;5041773;28;20724;-54
2022/08/26 06:11:43;;;;;;;8.60;6.90;;;;;;;23.64;74.20;96384.22;5042773;28;20303;-54
2022/08/26 06:14:10;;;;;;;7.82;6.80;;;;;;;23.74;73.02;96387.16;5042308;28;20231;-55
2022/08/26 06:16:40;;;;;;;7.22;6.60;;;;;;;23.98;73.43;96384.53;5042275;28;20294;-54
2022/08/26 06:19:08;;;;;;;7.95;6.47;;;;;;;24.01;71.28;96374.06;5042482;28;20601;-54
2022/08/26 06:21:37;;;;;;;7.13;6.40;;;;;;;24.05;73.55;96375.25;5042834;28;20345;-55
2022/08/26 06:26:54;;;;;;;7.88;7.07;;;;;;;23.92;71.22;96393.53;5042579;28;20555;-57
2022/08/26 06:29:23;;;;;;;7.65;6.60;;;;;;;24.11;70.60;96381.59;5042265;28;20297;-54
2022/08/26 06:31:49;;;;;;;10.98;6.72;;;;;;;24.03;71.79;96392.72;5042549;28;20214;-53
2022/08/26 06:34:16;;;;;;;18.80;7.95;;;;;;;24.30;70.28;96390.44;5042262;28;20317;-56
2022/08/26 06:36:43;;;;;;;17.00;9.82;;;;;;;24.44;68.25;96392.69;5041976;28;20222;-55
2022/08/26 06:39:11;;;;;;;14.00;7.90;;;;;;;24.37;68.40;96389.28;5041959;28;20668;-54
2022/08/26 06:41:42;;;;;;;13.63;8.13;;;;;;;24.30;70.28;96393.16;5042193;28;20295;-55
2022/08/26 06:44:14;;;;;;;14.90;10.15;;;;;;;24.73;67.71;96394.38;5042252;28;20196;-56
2022/08/26 06:46:42;;;;;;;10.02;8.77;;;;;;;24.44;67.94;96389.97;5041823;28;20265;-56
2022/08/26 06:49:11;;;;;;;11.68;7.18;;;;;;;23.74;74.82;96400.66;5041319;28;20332;-55
2022/08/26 06:51:40;;;;;;;12.30;7.00;;;;;;;23.54;76.62;96397.44;5041828;28;20287;-55
2022/08/26 06:54:07;;;;;;;60.97;12.73;;;;;;;23.88;72.89;96406.69;5041752;28;20295;-55
2022/08/26 06:56:37;;;;;;;21.95;9.25;;;;;;;23.99;74.68;96400.47;5041850;28;20286;-56
2022/08/26 06:59:05;;;;;;;8.32;7.60;;;;;;;24.04;72.21;96402.50;5042114;28;21336;-55
2022/08/26 07:01:34;;;;;;;8.65;7.90;;;;;;;23.52;74.92;96404.16;5041311;28;20244;-56
2022/08/26 07:04:04;;;;;;;8.85;7.93;;;;;;;23.78;73.09;96409.13;5042265;28;20596;-56
2022/08/26 07:06:31;;;;;;;8.48;7.72;;;;;;;23.91;74.05;96406.25;5042165;28;20291;-55
2022/08/26 07:09:03;;;;;;;8.05;7.25;;;;;;;24.26;73.67;96400.91;5046249;28;20350;-54
2022/08/26 07:11:29;;;;;;;20.42;8.45;;;;;;;24.48;71.15;96398.44;5048813;28;20186;-56
2022/08/26 07:13:57;;;;;;;109.40;17.60;;;;;;;24.65;71.06;96402.91;5048644;28;20282;-56
2022/08/26 07:16:25;;;;;;;34.30;10.88;;;;;;;24.97;70.00;96402.50;5048511;28;20293;-55
2022/08/26 07:18:54;;;;;;;9.23;7.53;;;;;;;24.99;69.55;96403.09;5048480;28;20200;-55
2022/08/26 07:21:23;;;;;;;8.18;7.38;;;;;;;25.03;68.80;96401.53;5048787;28;20226;-54
2022/08/26 07:23:50;;;;;;;8.07;7.38;;;;;;;25.35;67.39;96405.44;5048401;28;20288;-54
2022/08/26 07:26:19;;;;;;;8.73;7.90;;;;;;;25.33;67.88;96404.06;5048325;28;20293;-55
2022/08/26 07:28:49;;;;;;;8.00;7.30;;;;;;;25.75;66.42;96400.78;5048271;28;20295;-54
2022/08/26 07:31:16;;;;;;;9.27;7.57;;;;;;;25.82;65.44;96402.53;5048902;28;20253;-53
2022/08/26 07:33:44;;;;;;;8.23;7.00;;;;;;;25.85;67.21;96404.75;5048303;28;20287;-55
2022/08/26 07:36:14;;;;;;;8.57;7.30;;;;;;;26.10;65.27;96399.78;5048555;28;20282;-55
2022/08/26 07:38:43;;;;;;;7.93;6.75;;;;;;;26.05;64.78;96402.38;5047756;28;20203;-55
2022/08/26 07:41:11;;;;;;;8.75;7.75;;;;;;;26.14;64.72;96400.94;5048631;28;20206;-55
2022/08/26 07:43:39;;;;;;;7.63;6.80;;;;;;;26.12;68.28;96403.03;5048477;28;20683;-54
2022/08/26 07:46:06;;;;;;;16.70;8.07;;;;;;;26.22;65.88;96401.34;5049157;28;20238;-55
2022/08/26 07:48:34;;;;;;;8.48;6.68;;;;;;;26.31;63.80;96396.34;5047937;28;20258;-55
2022/08/26 07:51:01;;;;;;;10.10;7.22;;;;;;;26.25;68.08;96402.75;5051971;28;20267;-56
2022/08/26 07:53:29;;;;;;;7.60;6.85;;;;;;;26.09;64.32;96396.22;5054506;28;20276;-54
2022/08/26 07:55:57;;;;;;;7.85;7.05;;;;;;;25.82;64.69;96399.84;5050511;28;20636;-54
2022/08/26 07:58:25;;;;;;;7.10;6.47;;;;;;;26.08;66.42;96401.88;5049300;28;20239;-54
2022/08/26 08:00:52;;;;;;;8.65;6.85;;;;;;;26.04;65.14;96406.19;5053422;28;20253;-55
2022/08/26 08:03:19;;;;;;;7.45;6.22;;;;;;;25.82;65.94;96403.38;5053055;28;20254;-56
2022/08/26 08:05:47;;;;;;;7.93;6.47;;;;;;;25.79;66.40;96398.41;5050617;28;20277;-54
2022/08/26 08:08:14;;;;;;;6.72;6.15;;;;;;;25.82;68.19;96392.53;5046699;28;20666;-54
2022/08/26 08:10:43;;;;;;;8.30;6.00;;;;;;;25.82;68.60;96397.94;5048128;28;20637;-55
2022/08/26 08:13:09;;;;;;;9.18;6.07;;;;;;;25.83;68.90;96390.63;5048147;28;20191;-55
2022/08/26 08:15:36;;;;;;;6.35;5.70;;;;;;;25.85;70.27;96396.63;5048342;28;20338;-53
2022/08/26 08:18:05;;;;;;;8.48;5.13;;;;;;;25.79;64.83;96389.50;5047599;28;20285;-56
2022/08/26 08:20:32;;;;;;;7.40;5.47;;;;;;;25.98;65.46;96390.88;5044644;28;20231;-53
2022/08/26 08:22:59;;;;;;;5.65;4.75;;;;;;;26.06;63.92;96383.19;5044326;28;21242;-56
2022/08/26 08:25:26;;;;;;;5.32;4.88;;;;;;;26.32;63.84;96384.44;5044472;28;20282;-55
2022/08/26 08:27:54;;;;;;;4.63;4.32;;;;;;;26.47;63.81;96390.06;5045309;28;20261;-54
2022/08/26 08:30:21;;;;;;;4.35;3.95;;;;;;;26.43;58.05;96383.50;5044063;28;20298;-56
2022/08/26 08:32:48;;;;;;;4.35;4.05;;;;;;;26.43;60.71;96385.41;5044239;28;20687;-55
2022/08/26 08:35:17;;;;;;;4.35;4.00;;;;;;;26.39;61.12;96381.56;5044233;28;20712;-54
2022/08/26 08:37:44;;;;;;;5.13;4.20;;;;;;;26.45;56.46;96392.22;5044173;28;20640;-55
2022/08/26 08:40:12;;;;;;;4.15;3.85;;;;;;;26.39;56.49;96390.50;5044683;28;20234;-56
2022/08/26 08:42:45;;;;;;;4.88;4.22;;;;;;;26.37;56.52;96387.22;5044709;28;20265;-55
2022/08/26 08:45:15;;;;;;;4.25;3.95;;;;;;;26.48;58.17;96390.91;5044042;28;20226;-55
2022/08/26 08:47:46;;;;;;;4.00;3.70;;;;;;;26.67;59.72;96387.66;5044021;28;20327;-55
2022/08/26 08:50:20;;;;;;;7.70;3.58;;;;;;;26.65;57.25;96392.50;5043848;28;20234;-55
2022/08/26 08:52:52;;;;;;;3.40;3.20;;;;;;;26.65;53.75;96384.38;5044692;28;20287;-54
2022/08/26 08:55:19;;;;;;;3.30;3.10;;;;;;;26.61;54.81;96379.69;5044323;28;20228;-54
2022/08/26 08:57:55;;;;;;;5.22;4.70;;;;;;;26.62;56.59;96384.03;5044170;28;20250;-55
2022/08/26 09:00:23;;;;;;;3.38;3.05;;;;;;;26.66;54.39;96379.75;5044827;28;20218;-55
2022/08/26 09:02:52;;;;;;;3.58;3.28;;;;;;;26.58;53.17;96375.59;5043883;28;20321;-54
2022/08/26 09:05:22;;;;;;;3.30;3.10;;;;;;;26.83;51.79;96377.84;5043744;28;20303;-54
2022/08/26 09:07:52;;;;;;;3.58;3.28;;;;;;;27.07;51.96;96386.56;5044041;28;20226;-55
2022/08/26 09:10:31;;;;;;;3.70;3.40;;;;;;;27.37;53.50;96389.66;5043856;28;20295;-53
2022/08/26 09:12:58;;;;;;;3.33;3.13;;;;;;;27.34;51.90;96390.16;5044146;28;20242;-54
2022/08/26 09:15:31;;;;;;;4.05;3.75;;;;;;;27.31;54.11;96385.25;5043546;28;20337;-54
2022/08/26 09:18:05;;;;;;;5.43;5.05;;;;;;;27.50;53.95;96381.13;5043676;28;20227;-56
2022/08/26 09:20:37;;;;;;;5.07;4.68;;;;;;;27.78;55.13;96379.22;5043215;28;20304;-53
2022/08/26 09:23:04;;;;;;;4.22;3.80;;;;;;;27.96;52.01;96384.25;5043712;28;20210;-54
2022/08/26 09:25:30;;;;;;;3.83;3.53;;;;;;;28.00;52.55;96374.53;5043253;28;20605;-55
2022/08/26 09:27:57;;;;;;;3.55;3.25;;;;;;;28.08;51.32;96369.47;5043568;28;20286;-55
2022/08/26 09:30:28;;;;;;;4.40;3.88;;;;;;;28.17;49.26;96380.66;5043869;28;20611;-55
2022/08/26 09:32:59;;;;;;;4.20;3.80;;;;;;;28.02;50.19;96375.88;5043708;28;20539;-54
2022/08/26 09:35:29;;;;;;;3.95;3.60;;;;;;;28.10;50.48;96375.44;5043654;28;20224;-55
2022/08/26 09:37:57;;;;;;;4.53;4.10;;;;;;;27.87;50.52;96381.22;5043208;28;20602;-55
2022/08/26 09:40:28;;;;;;;4.45;3.90;;;;;;;27.83;49.66;96371.13;5042672;28;20203;-56
2022/08/26 09:43:07;;;;;;;4.38;3.97;;;;;;;27.91;52.69;96378.81;5042939;28;20286;-55
2022/08/26 09:45:37;;;;;;;3.30;3.10;;;;;;;27.85;51.45;96375.19;5043855;28;20286;-55
2022/08/26 09:48:04;;;;;;;3.83;3.53;;;;;;;28.00;53.53;96380.78;5042347;28;20261;-55
2022/08/26 09:50:32;;;;;;;3.53;3.33;;;;;;;28.20;53.19;96374.69;5042810;28;20313;-54
2022/08/26 09:53:08;;;;;;;4.05;3.75;;;;;;;28.28;50.22;96368.78;5042901;28;20303;-55
2022/08/26 09:55:36;;;;;;;3.70;3.40;;;;;;;28.36;49.79;96367.47;5042717;28;20236;-56
2022/08/26 09:58:03;;;;;;;3.80;3.60;;;;;;;28.45;50.86;96355.84;5042350;28;20345;-55
2022/08/26 10:00:34;;;;;;;4.30;3.60;;;;;;;28.42;50.04;96356.38;5042267;28;20728;-54
2022/08/26 10:03:04;;;;;;;3.83;3.45;;;;;;;28.59;50.99;96361.66;5043121;28;20222;-55
2022/08/26 10:05:39;;;;;;;3.65;3.30;;;;;;;28.59;50.51;96351.56;5043005;28;20246;-55
2022/08/26 10:08:26;;;;;;;4.22;3.90;;;;;;;28.81;51.63;96350.63;5042546;28;20203;-53
2022/08/26 10:10:54;;;;;;;3.95;3.55;;;;;;;29.11;47.08;96343.44;5042746;28;20234;-56
2022/08/26 10:13:26;;;;;;;4.57;3.80;;;;;;;29.33;49.79;96343.25;5043131;28;20210;-54
2022/08/26 10:15:59;;;;;;;3.58;3.35;;;;;;;29.64;50.53;96339.50;5042490;28;20260;-54
2022/08/26 10:18:30;;;;;;;3.72;3.42;;;;;;;29.54;46.87;96336.75;5042094;28;20207;-55
2022/08/26 10:21:02;;;;;;;3.78;3.50;;;;;;;29.23;48.09;96326.81;5042911;28;20295;-56
2022/08/26 10:23:32;;;;;;;4.47;3.22;;;;;;;29.50;47.98;96327.50;5042115;28;20346;-55
2022/08/26 10:26:03;;;;;;;3.63;3.30;;;;;;;29.60;47.60;96324.78;5042275;28;20337;-54
2022/08/26 10:28:33;;;;;;;3.63;3.42;;;;;;;29.69;47.35;96318.78;5042552;28;20260;-56
2022/08/26 10:31:03;;;;;;;3.70;3.40;;;;;;;30.07;48.88;96312.81;5042119;28;20208;-56
2022/08/26 10:33:32;;;;;;;4.07;3.70;;;;;;;30.19;48.46;96310.59;5042109;28;20206;-53
2022/08/26 10:36:00;;;;;;;3.92;3.63;;;;;;;30.10;47.18;96312.25;5042757;28;20245;-54
2022/08/26 10:38:33;;;;;;;4.07;3.67;;;;;;;29.83;46.22;96306.25;5041677;28;20291;-54
2022/08/26 10:41:04;;;;;;;3.67;3.35;;;;;;;30.01;45.67;96303.81;5042242;28;20643;-56
2022/08/26 10:43:33;;;;;;;4.13;3.72;;;;;;;30.01;50.04;96306.53;5041787;28;20298;-55
2022/08/26 10:46:04;;;;;;;4.40;3.70;;;;;;;30.03;45.93;96309.00;5041622;28;20737;-55
2022/08/26 10:48:36;;;;;;;4.00;3.70;;;;;;;30.20;45.48;96306.78;5041336;28;20755;-54
2022/08/26 10:51:03;;;;;;;4.22;3.78;;;;;;;30.14;44.18;96299.72;5042002;28;20218;-54
2022/08/26 10:53:37;;;;;;;3.83;3.53;;;;;;;30.40;45.52;96298.56;5041742;28;20291;-55
2022/08/26 10:56:08;;;;;;;4.40;3.50;;;;;;;30.54;45.25;96296.91;5041582;28;20515;-56
2022/08/26 10:58:50;;;;;;;4.03;3.75;;;;;;;30.59;45.82;96296.91;5042379;28;20208;-55
2022/08/26 11:04:17;;;;;;;3.40;3.20;;;;;;;30.32;43.34;96287.41;5041627;28;20214;-56
2022/08/26 11:06:44;;;;;;;5.90;3.45;;;;;;;30.20;43.46;96284.16;5041780;28;20238;-54
2022/08/26 11:09:12;;;;;;;4.07;3.63;;;;;;;30.05;45.45;96279.53;5041669;28;20207;-55
2022/08/26 11:11:45;;;;;;;5.68;3.83;;;;;;;30.03;42.94;96279.00;5041323;28;20338;-55
2022/08/26 11:14:35;;;;;;;4.10;3.70;;;;;;;30.07;44.02;96283.63;5041386;28;20632;-55
2022/08/26 11:17:01;;;;;;;4.07;3.20;;;;;;;30.37;44.50;96271.84;5041190;28;20289;-55
2022/08/26 11:19:58;;;;;;;4.45;3.50;;;;;;;30.52;44.22;96263.63;5041523;28;20296;-54
2022/08/26 11:22:27;;;;;;;3.92;3.63;;;;;;;30.79;44.00;96270.63;5041560;28;20611;-55
2022/08/26 11:25:07;;;;;;;4.80;3.92;;;;;;;30.79;43.88;96270.63;5041921;28;20291;-55
2022/08/26 11:27:56;;;;;;;4.82;3.92;;;;;;;30.57;44.90;96271.00;5041715;28;20214;-55
2022/08/26 11:30:45;;;;;;;3.45;3.25;;;;;;;30.34;46.75;96266.94;5041782;28;20230;-56
2022/08/26 11:33:56;;;;;;;4.25;3.95;;;;;;;30.34;42.13;96266.94;5041926;28;20204;-54
2022/08/26 11:36:59;;;;;;;4.32;3.95;;;;;;;30.00;45.15;96265.91;5041666;28;20557;-56
2022/08/26 11:39:47;;;;;;;5.30;4.70;;;;;;;29.97;45.73;96266.47;5041792;28;20270;-54
2022/08/26 11:42:25;;;;;;;4.35;3.95;;;;;;;30.08;44.98;96263.44;5042362;28;20214;-54
2022/08/26 11:44:52;;;;;;;6.03;4.38;;;;;;;30.32;45.25;96258.22;5043336;28;20203;-54
2022/08/26 11:47:27;;;;;;;3.72;3.25;;;;;;;30.17;43.31;96250.06;5042738;28;20204;-54
2022/08/26 11:50:07;;;;;;;3.80;3.50;;;;;;;30.42;44.71;96246.47;5043053;28;20314;-55